Time;durP1;ratioP1;P1;durP2;ratioP2;P2;SDS_P1;SDS_P2;PMS_P1;PMS_P2;Temp;Humidity;BMP_temperature;BMP_pressure;BME280_temperature;BME280_humidity;BME280_pressure;Samples;Min_cycle;Max_cycle;Signal;HPM_P1;HPM_P2
2022/12/10 00:00:06;;;;;;;49.20;29.17;;;;;;;-2.21;100.00;99954.41;695957;28;1155;-71
2022/12/10 00:00:27;;;;;;;50.33;28.67;;;;;;;-2.20;100.00;99953.56;695732;28;1169;-70
2022/12/10 00:00:47;;;;;;;51.67;29.33;;;;;;;-2.17;100.00;99959.66;693320;28;4478;-70
2022/12/10 00:01:16;;;;;;;52.07;29.13;;;;;;;-2.15;100.00;99958.00;691204;28;1176;-68
2022/12/10 00:01:36;;;;;;;50.25;28.52;;;;;;;-2.19;100.00;99951.03;693335;28;1247;-67
2022/12/10 00:01:57;;;;;;;52.22;29.33;;;;;;;-2.25;100.00;99958.53;693218;28;5340;-70
2022/12/10 00:02:17;;;;;;;51.73;29.73;;;;;;;-2.25;100.00;99961.09;693848;28;1404;-71
2022/12/10 00:02:37;;;;;;;50.73;28.47;;;;;;;-2.25;100.00;99956.81;695069;28;1287;-71
2022/12/10 00:02:58;;;;;;;49.60;28.40;;;;;;;-2.24;100.00;99962.84;696274;28;1626;-72
2022/12/10 00:03:18;;;;;;;51.90;28.43;;;;;;;-2.24;100.00;99953.44;697887;28;1330;-70
2022/12/10 00:03:39;;;;;;;51.70;30.03;;;;;;;-2.28;100.00;99960.97;693184;28;1390;-69
2022/12/10 00:04:00;;;;;;;51.73;31.23;;;;;;;-2.29;100.00;99959.22;694923;28;4232;-71
2022/12/10 00:04:21;;;;;;;49.50;28.83;;;;;;;-2.26;100.00;99960.22;695968;28;1274;-69
2022/12/10 00:04:41;;;;;;;50.88;27.55;;;;;;;-2.29;100.00;99961.78;694851;28;1242;-71
2022/12/10 00:05:02;;;;;;;49.63;26.03;;;;;;;-2.30;100.00;99960.94;694947;28;1127;-69
2022/12/10 00:05:22;;;;;;;46.30;25.23;;;;;;;-2.27;100.00;99962.69;692538;28;2111;-70
2022/12/10 00:05:42;;;;;;;46.83;26.80;;;;;;;-2.29;100.00;99959.22;696854;28;1196;-70
2022/12/10 00:06:05;;;;;;;50.03;26.63;;;;;;;-2.29;100.00;99959.22;693089;28;1333;-69
2022/12/10 00:06:29;;;;;;;49.22;26.42;;;;;;;-2.26;100.00;99964.44;693395;28;1070;-72
2022/12/10 00:06:49;;;;;;;49.38;27.25;;;;;;;-2.26;100.00;99960.22;690910;28;4350;-70
2022/12/10 00:07:09;;;;;;;48.47;27.90;;;;;;;-2.25;100.00;99963.66;691299;28;1269;-70
2022/12/10 00:07:30;;;;;;;49.72;29.10;;;;;;;-2.26;100.00;99964.44;693240;28;1464;-69
2022/12/10 00:07:50;;;;;;;53.35;30.10;;;;;;;-2.26;100.00;99961.88;691223;28;1188;-69
2022/12/10 00:08:11;;;;;;;52.67;30.53;;;;;;;-2.25;100.00;99961.09;691287;28;1144;-68
2022/12/10 00:08:32;;;;;;;52.73;31.17;;;;;;;-2.31;100.00;99965.97;691799;28;1361;-67
2022/12/10 00:08:53;;;;;;;53.00;30.27;;;;;;;-2.31;100.00;99965.97;690856;28;1458;-69
2022/12/10 00:09:16;;;;;;;49.38;28.80;;;;;;;-2.29;100.00;99959.22;692407;28;1233;-70
2022/12/10 00:09:37;;;;;;;50.40;27.35;;;;;;;-2.31;100.00;99965.97;695754;28;1246;-69
2022/12/10 00:09:59;;;;;;;47.33;26.48;;;;;;;-2.31;100.00;99960.84;695642;28;4340;-70
2022/12/10 00:10:20;;;;;;;46.25;26.52;;;;;;;-2.21;100.00;99962.06;695408;28;1214;-70
2022/12/10 00:10:40;;;;;;;48.33;27.05;;;;;;;-2.24;100.00;99965.41;695490;28;1178;-70
2022/12/10 00:11:06;;;;;;;49.10;27.10;;;;;;;-2.29;100.00;99959.22;693150;28;1387;-70
2022/12/10 00:11:27;;;;;;;45.45;25.77;;;;;;;-2.29;100.00;99964.34;692395;28;1218;-71
2022/12/10 00:11:48;;;;;;;44.05;25.02;;;;;;;-2.30;100.00;99962.59;690991;28;1470;-69
2022/12/10 00:12:08;;;;;;;44.05;25.38;;;;;;;-2.33;100.00;99959.94;690647;28;1268;-70
2022/12/10 00:12:29;;;;;;;44.10;25.33;;;;;;;-2.34;100.00;99960.75;687129;28;1089;-70
2022/12/10 00:12:49;;;;;;;46.70;26.03;;;;;;;-2.34;100.00;99958.19;687508;28;4354;-70
2022/12/10 00:13:09;;;;;;;47.67;26.45;;;;;;;-2.35;100.00;99961.56;691048;28;1108;-69
2022/12/10 00:13:30;;;;;;;44.67;25.17;;;;;;;-2.34;100.00;99960.75;691593;28;1080;-70
2022/12/10 00:13:52;;;;;;;45.63;24.98;;;;;;;-2.36;100.00;99959.84;691667;28;1215;-68
2022/12/10 00:14:13;;;;;;;46.80;25.20;;;;;;;-2.34;100.00;99964.19;692238;28;1238;-67
2022/12/10 00:14:34;;;;;;;46.63;24.95;;;;;;;-2.34;100.00;99965.88;692218;28;947;-70
2022/12/10 00:14:54;;;;;;;46.10;25.05;;;;;;;-2.31;100.00;99971.97;694684;28;1215;-70
2022/12/10 00:15:16;;;;;;;43.53;24.57;;;;;;;-2.29;100.00;99962.66;694345;28;1475;-71
2022/12/10 00:15:36;;;;;;;45.38;24.92;;;;;;;-2.29;100.00;99966.91;694810;28;1365;-69
2022/12/10 00:15:59;;;;;;;44.73;24.37;;;;;;;-2.30;100.00;99966.06;694049;28;4280;-69
2022/12/10 00:16:23;;;;;;;44.38;23.35;;;;;;;-2.28;100.00;99963.53;694593;28;1222;-70
2022/12/10 00:16:43;;;;;;;45.50;24.00;;;;;;;-2.29;100.00;99962.66;694878;28;1063;-70
2022/12/10 00:17:04;;;;;;;45.00;24.75;;;;;;;-2.27;100.00;99968.72;694712;28;3708;-71
2022/12/10 00:17:24;;;;;;;43.57;23.90;;;;;;;-2.25;100.00;99958.53;694381;28;1444;-71
2022/12/10 00:17:44;;;;;;;45.00;23.58;;;;;;;-2.24;100.00;99958.56;692227;28;1452;-68
2022/12/10 00:18:05;;;;;;;43.73;23.53;;;;;;;-2.21;100.00;99957.81;691872;28;1438;-70
2022/12/10 00:18:25;;;;;;;42.05;22.83;;;;;;;-2.22;100.00;99961.19;691622;28;1104;-69
2022/12/10 00:18:46;;;;;;;43.83;22.93;;;;;;;-2.18;100.00;99955.34;694948;28;4389;-69
2022/12/10 00:19:07;;;;;;;42.38;22.60;;;;;;;-2.16;100.00;99960.53;695425;28;1354;-67
2022/12/10 00:19:27;;;;;;;43.67;23.60;;;;;;;-2.17;100.00;99951.09;693475;28;1218;-68
2022/12/10 00:19:48;;;;;;;46.03;23.90;;;;;;;-2.18;100.00;99957.91;693443;28;1254;-70
2022/12/10 00:20:09;;;;;;;42.28;22.80;;;;;;;-2.24;100.00;99962.84;693909;28;1230;-71
2022/12/10 00:20:30;;;;;;;39.92;22.20;;;;;;;-2.34;100.00;99961.63;693435;28;1223;-69
2022/12/10 00:20:50;;;;;;;42.00;22.90;;;;;;;-2.37;100.00;99955.53;691178;28;1298;-70
2022/12/10 00:21:13;;;;;;;41.47;21.93;;;;;;;-2.38;100.00;99953.78;691194;28;1340;-68
2022/12/10 00:21:35;;;;;;;42.03;22.55;;;;;;;-2.37;100.00;99960.63;692296;28;1200;-70
2022/12/10 00:21:55;;;;;;;40.63;21.92;;;;;;;-2.37;100.00;99955.53;692239;28;4460;-71
2022/12/10 00:22:16;;;;;;;39.20;21.23;;;;;;;-2.29;100.00;99964.34;693843;28;1144;-69
2022/12/10 00:22:38;;;;;;;40.37;21.30;;;;;;;-2.19;100.00;99955.31;692831;28;1216;-70
2022/12/10 00:22:59;;;;;;;40.38;21.75;;;;;;;-2.14;100.00;99949.53;695000;28;1508;-71
2022/12/10 00:23:19;;;;;;;41.65;22.20;;;;;;;-2.16;100.00;99948.63;693669;28;1033;-67
2022/12/10 00:23:40;;;;;;;41.97;22.60;;;;;;;-2.11;100.00;99952.19;694207;28;1108;-69
2022/12/10 00:24:02;;;;;;;41.13;22.48;;;;;;;-2.10;100.00;99956.50;695418;28;1325;-71
2022/12/10 00:24:22;;;;;;;40.92;22.25;;;;;;;-2.10;100.00;99956.50;695216;28;1234;-70
2022/12/10 00:24:43;;;;;;;41.05;22.30;;;;;;;-2.12;100.00;99947.91;694635;28;4308;-70
2022/12/10 00:25:03;;;;;;;42.40;23.47;;;;;;;-2.15;100.00;99952.03;694090;28;1528;-70
2022/12/10 00:25:24;;;;;;;45.03;24.80;;;;;;;-2.19;100.00;99952.75;694145;28;1987;-71
2022/12/10 00:25:44;;;;;;;45.73;26.67;;;;;;;-2.20;100.00;99957.00;694149;28;1281;-68
2022/12/10 00:26:07;;;;;;;46.23;26.27;;;;;;;-2.18;100.00;99959.63;693998;28;1393;-69
2022/12/10 00:26:32;;;;;;;44.30;25.80;;;;;;;-2.17;100.00;99954.53;693323;28;1251;-69
2022/12/10 00:26:53;;;;;;;43.85;25.48;;;;;;;-2.18;100.00;99952.78;693488;28;2170;-70
2022/12/10 00:27:14;;;;;;;42.50;24.37;;;;;;;-2.19;100.00;99950.19;693358;28;1243;-70
2022/12/10 00:27:34;;;;;;;43.08;24.60;;;;;;;-2.15;100.00;99958.00;693475;28;1279;-70
2022/12/10 00:27:55;;;;;;;42.10;23.90;;;;;;;-2.07;100.00;99961.72;693319;28;4230;-71
2022/12/10 00:28:15;;;;;;;44.63;23.77;;;;;;;-2.03;100.00;99957.59;693374;28;1278;-69
2022/12/10 00:28:36;;;;;;;43.73;23.80;;;;;;;-2.02;100.00;99966.13;692584;28;1357;-69
2022/12/10 00:29:01;;;;;;;43.10;23.75;;;;;;;-2.04;100.00;99957.53;695220;28;1262;-69
2022/12/10 00:29:21;;;;;;;44.42;25.17;;;;;;;-2.08;100.00;99960.00;695298;28;1409;-69
2022/12/10 00:29:41;;;;;;;43.17;24.07;;;;;;;-2.07;100.00;99961.72;693045;28;1603;-69
2022/12/10 00:30:02;;;;;;;44.25;24.98;;;;;;;-2.06;100.00;99957.50;691446;28;998;-70
2022/12/10 00:30:23;;;;;;;42.78;24.98;;;;;;;-2.07;100.00;99956.59;693492;28;1516;-70
2022/12/10 00:30:43;;;;;;;42.47;24.77;;;;;;;-2.04;100.00;99957.53;689882;28;4492;-71
2022/12/10 00:31:07;;;;;;;43.60;24.17;;;;;;;-1.99;100.00;99963.69;690374;28;1473;-70
2022/12/10 00:31:31;;;;;;;43.45;23.80;;;;;;;-1.90;100.00;99957.19;691435;28;1251;-68
2022/12/10 00:31:51;;;;;;;43.65;24.13;;;;;;;-1.87;100.00;99958.97;691660;28;1217;-68
2022/12/10 00:32:12;;;;;;;44.53;25.17;;;;;;;-1.92;100.00;99957.97;690715;28;1148;-71
2022/12/10 00:32:32;;;;;;;45.17;25.43;;;;;;;-1.97;100.00;99955.22;695130;28;1281;-69
2022/12/10 00:32:52;;;;;;;44.80;25.77;;;;;;;-2.00;100.00;99960.25;692794;28;1282;-69
2022/12/10 00:33:13;;;;;;;44.03;25.83;;;;;;;-2.03;100.00;99959.28;691883;28;1156;-71
2022/12/10 00:33:33;;;;;;;43.75;25.13;;;;;;;-2.09;100.00;99958.25;691211;28;1163;-70
2022/12/10 00:33:56;;;;;;;45.00;25.67;;;;;;;-2.17;100.00;99957.09;690485;28;4332;-68
2022/12/10 00:34:16;;;;;;;45.72;25.63;;;;;;;-2.23;100.00;99965.44;689326;28;1779;-67
2022/12/10 00:34:36;;;;;;;44.53;25.43;;;;;;;-2.28;100.00;99955.84;688776;28;1362;-70
2022/12/10 00:34:57;;;;;;;42.78;25.17;;;;;;;-2.30;100.00;99962.59;691295;28;1278;-68
2022/12/10 00:35:17;;;;;;;43.17;24.37;;;;;;;-2.30;100.00;99963.50;692590;28;1282;-70
2022/12/10 00:35:37;;;;;;;43.38;24.75;;;;;;;-2.30;100.00;99957.47;689724;28;1448;-70
2022/12/10 00:36:03;;;;;;;41.73;24.80;;;;;;;-2.32;100.00;99954.88;690364;28;1314;-69
2022/12/10 00:36:30;;;;;;;44.13;25.10;;;;;;;-2.30;100.00;99960.03;695745;28;1461;-69
2022/12/10 00:36:52;;;;;;;44.60;24.42;;;;;;;-2.25;100.00;99959.38;687617;28;4701;-66
2022/12/10 00:37:13;;;;;;;44.10;25.00;;;;;;;-2.24;100.00;99963.69;684952;28;1123;-69
2022/12/10 00:37:33;;;;;;;43.03;25.58;;;;;;;-2.27;100.00;99957.56;683272;28;1174;-68
2022/12/10 00:37:54;;;;;;;44.03;25.77;;;;;;;-2.29;100.00;99952.41;684779;28;1097;-69
2022/12/10 00:38:15;;;;;;;43.13;24.80;;;;;;;-2.27;100.00;99952.47;685156;28;1073;-70
2022/12/10 00:38:37;;;;;;;43.17;25.42;;;;;;;-2.24;100.00;99957.72;685574;28;1097;-70
2022/12/10 00:38:57;;;;;;;42.63;25.30;;;;;;;-2.24;100.00;99961.13;691301;28;1144;-70
2022/12/10 00:39:21;;;;;;;42.92;24.25;;;;;;;-2.28;100.00;99959.28;691526;28;1266;-70
2022/12/10 00:39:42;;;;;;;42.97;24.42;;;;;;;-2.33;100.00;99957.38;690792;28;1349;-71
2022/12/10 00:40:03;;;;;;;41.43;23.30;;;;;;;-2.37;100.00;99960.63;694757;28;4730;-67
2022/12/10 00:40:23;;;;;;;43.05;23.63;;;;;;;-2.39;100.00;99958.03;695286;28;1369;-68
2022/12/10 00:40:43;;;;;;;43.97;24.50;;;;;;;-2.36;100.00;99958.13;692767;28;1297;-69
2022/12/10 00:41:04;;;;;;;41.07;23.23;;;;;;;-2.33;100.00;99962.50;692569;28;1420;-68
2022/12/10 00:41:27;;;;;;;42.50;23.27;;;;;;;-2.36;100.00;99957.28;696353;28;973;-69
2022/12/10 00:41:48;;;;;;;42.67;23.85;;;;;;;-2.38;100.00;99958.88;698922;28;1146;-69
2022/12/10 00:42:09;;;;;;;40.67;23.90;;;;;;;-2.32;100.00;99959.13;697077;28;1195;-69
2022/12/10 00:42:29;;;;;;;39.88;22.50;;;;;;;-2.27;100.00;99965.25;696895;28;1174;-70
2022/12/10 00:42:49;;;;;;;41.07;23.13;;;;;;;-2.28;100.00;99956.72;698740;28;4245;-70
2022/12/10 00:43:10;;;;;;;39.83;23.20;;;;;;;-2.29;100.00;99965.22;698033;28;1345;-69
2022/12/10 00:43:30;;;;;;;41.17;23.67;;;;;;;-2.30;100.00;99963.50;696906;28;1091;-69
2022/12/10 00:43:51;;;;;;;44.25;23.42;;;;;;;-2.29;100.00;99967.78;694078;28;1151;-69
2022/12/10 00:44:12;;;;;;;42.17;23.13;;;;;;;-2.30;100.00;99962.59;694257;28;1119;-70
2022/12/10 00:44:32;;;;;;;42.15;22.83;;;;;;;-2.29;100.00;99964.34;697153;28;1219;-66
2022/12/10 00:44:53;;;;;;;42.00;23.27;;;;;;;-2.26;100.00;99962.78;697033;28;1165;-69
2022/12/10 00:45:13;;;;;;;42.50;22.73;;;;;;;-2.21;100.00;99962.94;698316;28;1993;-69
2022/12/10 00:45:33;;;;;;;42.45;23.20;;;;;;;-2.16;100.00;99963.09;696378;28;1224;-70
2022/12/10 00:45:54;;;;;;;42.53;23.53;;;;;;;-2.17;100.00;99958.78;695008;28;4407;-70
2022/12/10 00:46:16;;;;;;;39.67;23.08;;;;;;;-2.15;100.00;99963.13;698664;28;1158;-66
2022/12/10 00:46:36;;;;;;;39.95;22.98;;;;;;;-2.12;100.00;99960.72;694541;28;1459;-70
2022/12/10 00:46:57;;;;;;;41.57;23.60;;;;;;;-2.08;100.00;99960.00;693501;28;1075;-68
2022/12/10 00:47:17;;;;;;;38.65;23.10;;;;;;;-2.02;100.00;99963.56;692147;28;1389;-69
2022/12/10 00:47:40;;;;;;;39.43;23.10;;;;;;;-2.06;100.00;99960.91;692958;28;1126;-70
2022/12/10 00:48:00;;;;;;;43.05;23.63;;;;;;;-2.13;100.00;99966.63;694897;28;1122;-70
2022/12/10 00:48:21;;;;;;;43.57;24.87;;;;;;;-2.17;100.00;99969.00;693032;28;1123;-69
2022/12/10 00:48:42;;;;;;;42.92;23.70;;;;;;;-2.20;100.00;99958.66;692932;28;1329;-69
2022/12/10 00:49:03;;;;;;;42.78;24.42;;;;;;;-2.22;100.00;99966.31;694835;28;5738;-68
2022/12/10 00:49:24;;;;;;;42.20;23.65;;;;;;;-2.24;100.00;99962.84;694486;28;1448;-69
2022/12/10 00:49:44;;;;;;;40.10;23.73;;;;;;;-2.25;100.00;99961.94;695480;28;1579;-68
2022/12/10 00:50:05;;;;;;;39.90;23.30;;;;;;;-2.23;100.00;99962.88;695079;28;1451;-67
2022/12/10 00:50:26;;;;;;;39.75;22.88;;;;;;;-2.15;100.00;99964.84;698281;28;1121;-68
2022/12/10 00:50:58;;;;;;;40.70;23.20;;;;;;;-2.12;100.00;99967.50;700100;28;1341;-67
2022/12/10 00:51:21;;;;;;;42.45;23.58;;;;;;;-2.17;100.00;99969.91;701354;28;1064;-69
2022/12/10 00:51:41;;;;;;;39.20;22.80;;;;;;;-2.14;100.00;99964.88;700577;28;1288;-70
2022/12/10 00:52:02;;;;;;;41.73;22.87;;;;;;;-2.12;100.00;99963.28;701479;28;5578;-69
2022/12/10 00:52:24;;;;;;;41.22;22.48;;;;;;;-2.10;100.00;99968.44;697617;28;1668;-69
2022/12/10 00:52:45;;;;;;;38.75;21.15;;;;;;;-2.09;100.00;99965.03;695126;28;1408;-69
2022/12/10 00:53:06;;;;;;;38.33;20.43;;;;;;;-2.04;100.00;99960.09;695620;28;1444;-69
2022/12/10 00:53:28;;;;;;;38.60;20.77;;;;;;;-2.04;100.00;99967.78;696515;28;1170;-66
2022/12/10 00:53:51;;;;;;;39.50;21.55;;;;;;;-2.09;100.00;99965.03;697080;28;944;-68
2022/12/10 00:54:12;;;;;;;39.03;22.27;;;;;;;-2.13;100.00;99964.06;697673;28;1285;-69
2022/12/10 00:54:32;;;;;;;38.57;21.37;;;;;;;-2.12;100.00;99963.28;693206;28;1111;-68
2022/12/10 00:54:53;;;;;;;39.00;21.67;;;;;;;-2.14;100.00;99962.31;693038;28;4291;-68
2022/12/10 00:55:13;;;;;;;39.70;21.63;;;;;;;-2.14;100.00;99961.47;691881;28;1341;-69
2022/12/10 00:55:33;;;;;;;38.40;21.45;;;;;;;-2.13;100.00;99956.41;690992;28;1345;-68
2022/12/10 00:55:54;;;;;;;38.73;21.47;;;;;;;-2.12;100.00;99960.72;693149;28;1150;-68
2022/12/10 00:56:18;;;;;;;38.92;21.15;;;;;;;-2.12;100.00;99958.16;691440;28;1304;-69
2022/12/10 00:56:38;;;;;;;37.97;20.73;;;;;;;-2.19;100.00;99966.41;694767;28;1262;-66
2022/12/10 00:56:59;;;;;;;41.50;21.13;;;;;;;-2.26;100.00;99967.91;695829;28;1530;-69
2022/12/10 00:57:19;;;;;;;40.33;21.10;;;;;;;-2.27;100.00;99961.03;694573;28;1352;-69
2022/12/10 00:57:39;;;;;;;41.83;21.20;;;;;;;-2.21;100.00;99970.63;691436;28;1267;-68
2022/12/10 00:58:00;;;;;;;42.00;21.43;;;;;;;-2.21;100.00;99959.50;687679;28;4471;-70
2022/12/10 00:58:20;;;;;;;40.20;21.43;;;;;;;-2.18;100.00;99965.59;690011;28;1406;-69
2022/12/10 00:58:41;;;;;;;41.30;21.73;;;;;;;-2.19;100.00;99955.31;691233;28;1656;-69
2022/12/10 00:59:02;;;;;;;40.03;22.00;;;;;;;-2.29;100.00;99964.34;690371;28;1286;-69
2022/12/10 00:59:22;;;;;;;40.37;21.43;;;;;;;-2.35;100.00;99959.00;692551;28;1456;-69
2022/12/10 00:59:43;;;;;;;40.50;21.03;;;;;;;-2.42;100.00;99963.91;692280;28;1453;-68
2022/12/10 01:00:04;;;;;;;39.33;20.93;;;;;;;-2.41;100.00;99968.22;691215;28;1167;-68
2022/12/10 01:00:24;;;;;;;37.80;20.98;;;;;;;-2.36;100.00;99959.84;690636;28;1382;-67
2022/12/10 01:00:45;;;;;;;38.60;21.20;;;;;;;-2.35;100.00;99964.09;692115;28;4314;-67
2022/12/10 01:01:10;;;;;;;37.93;21.00;;;;;;;-2.34;100.00;99960.75;695514;28;1278;-69
2022/12/10 01:01:39;;;;;;;37.42;20.23;;;;;;;-2.32;100.00;99954.88;696166;28;1311;-66
2022/12/10 01:01:59;;;;;;;36.03;20.23;;;;;;;-2.32;100.00;99964.25;694747;28;4949;-67
2022/12/10 01:02:20;;;;;;;35.40;20.07;;;;;;;-2.33;100.00;99965.06;694582;28;1224;-69
2022/12/10 01:02:41;;;;;;;36.05;20.17;;;;;;;-2.35;100.00;99969.22;697555;28;1372;-69
2022/12/10 01:03:01;;;;;;;36.53;20.50;;;;;;;-2.40;100.00;99966.50;696773;28;1111;-68
2022/12/10 01:03:21;;;;;;;37.47;20.30;;;;;;;-2.42;100.00;99963.91;695705;28;1431;-69
2022/12/10 01:03:42;;;;;;;39.13;20.97;;;;;;;-2.34;100.00;99968.44;694284;28;1520;-70
2022/12/10 01:04:09;;;;;;;38.28;20.98;;;;;;;-2.23;100.00;99964.56;691917;28;5687;-67
2022/12/10 01:04:30;;;;;;;42.47;23.15;;;;;;;-2.27;100.00;99962.69;696206;28;1379;-68
2022/12/10 01:04:53;;;;;;;40.67;22.88;;;;;;;-2.36;100.00;99972.63;696721;28;1237;-66
2022/12/10 01:05:14;;;;;;;46.25;28.38;;;;;;;-2.40;100.00;99967.38;691149;28;1919;-70
2022/12/10 01:05:34;;;;;;;59.40;37.13;;;;;;;-2.44;100.00;99968.13;695694;28;1306;-69
2022/12/10 01:05:54;;;;;;;66.70;41.13;;;;;;;-2.52;100.00;99968.63;698866;28;1106;-68
2022/12/10 01:06:21;;;;;;;73.93;45.47;;;;;;;-2.58;100.00;99972.69;697696;28;1269;-69
2022/12/10 01:06:47;;;;;;;80.75;50.78;;;;;;;-2.57;100.00;99968.47;695747;28;1417;-68
2022/12/10 01:07:09;;;;;;;59.08;34.53;;;;;;;-2.64;100.00;99964.81;692674;28;4950;-68
2022/12/10 01:07:30;;;;;;;48.80;26.45;;;;;;;-2.70;100.00;99972.25;697418;28;1399;-69
2022/12/10 01:07:52;;;;;;;46.37;25.27;;;;;;;-2.77;100.00;99966.03;694949;28;1170;-66
2022/12/10 01:08:12;;;;;;;56.75;34.25;;;;;;;-2.79;100.00;99962.53;695335;28;1210;-66
2022/12/10 01:08:32;;;;;;;72.93;48.60;;;;;;;-2.79;100.00;99966.78;694733;28;1139;-67
2022/12/10 01:08:56;;;;;;;92.37;67.10;;;;;;;-2.77;100.00;99970.25;694576;28;1577;-69
2022/12/10 01:09:26;;;;;;;109.13;85.53;;;;;;;-2.74;100.00;99961.03;692847;28;2137;-68
2022/12/10 01:09:47;;;;;;;88.35;66.72;;;;;;;-2.73;100.00;99967.00;692710;28;4592;-66
2022/12/10 01:10:08;;;;;;;71.77;51.30;;;;;;;-2.75;100.00;99964.41;690690;28;1658;-67
2022/12/10 01:10:28;;;;;;;69.65;49.10;;;;;;;-2.75;100.00;99960.97;692694;28;1330;-67
2022/12/10 01:10:55;;;;;;;66.73;44.13;;;;;;;-2.72;100.00;99961.09;693611;28;1136;-69
2022/12/10 01:11:18;;;;;;;59.46;37.64;;;;;;;-2.70;100.00;99966.25;695232;28;1254;-70
2022/12/10 01:11:41;;;;;;;70.85;46.28;;;;;;;-2.75;100.00;99966.97;696882;28;1264;-69
2022/12/10 01:12:03;;;;;;;88.90;63.25;;;;;;;-2.79;100.00;99967.66;696667;28;1273;-69
2022/12/10 01:12:23;;;;;;;83.32;55.70;;;;;;;-2.82;100.00;99964.13;695307;28;1273;-67
2022/12/10 01:12:44;;;;;;;73.80;47.30;;;;;;;-2.80;100.00;99965.03;694741;28;5401;-67
2022/12/10 01:13:05;;;;;;;68.38;43.88;;;;;;;-2.74;100.00;99960.16;697160;28;1448;-69
2022/12/10 01:13:25;;;;;;;62.13;42.80;;;;;;;-2.70;100.00;99967.16;700408;28;3413;-68
2022/12/10 01:13:47;;;;;;;59.53;38.90;;;;;;;-2.74;100.00;99967.84;697562;28;1459;-69
2022/12/10 01:14:10;;;;;;;50.45;29.95;;;;;;;-2.77;100.00;99966.03;694835;28;1131;-66
2022/12/10 01:14:33;;;;;;;47.55;26.67;;;;;;;-2.74;100.00;99971.25;692742;28;1251;-69
2022/12/10 01:14:53;;;;;;;44.90;24.92;;;;;;;-2.79;100.00;99962.53;692546;28;1430;-68
2022/12/10 01:15:13;;;;;;;47.07;25.30;;;;;;;-2.81;100.00;99969.31;693016;28;1270;-69
2022/12/10 01:15:39;;;;;;;44.70;24.83;;;;;;;-2.81;100.00;99971.84;699228;28;1571;-68
2022/12/10 01:16:04;;;;;;;46.03;25.73;;;;;;;-2.82;100.00;99971.81;697146;28;4273;-69
2022/12/10 01:16:26;;;;;;;49.33;28.90;;;;;;;-2.81;100.00;99969.31;697458;28;1248;-67
2022/12/10 01:16:46;;;;;;;49.53;29.85;;;;;;;-2.80;100.00;99965.03;698918;28;1453;-66
2022/12/10 01:17:07;;;;;;;50.17;28.90;;;;;;;-2.75;100.00;99968.66;692858;28;1159;-68
2022/12/10 01:17:27;;;;;;;48.73;27.93;;;;;;;-2.83;100.00;99965.78;692243;28;1144;-67
2022/12/10 01:17:47;;;;;;;49.33;28.70;;;;;;;-2.84;100.00;99964.03;693501;28;1496;-69
2022/12/10 01:18:08;;;;;;;49.90;27.63;;;;;;;-2.76;100.00;99969.47;694540;28;1146;-68
2022/12/10 01:18:29;;;;;;;49.13;25.95;;;;;;;-2.73;100.00;99969.56;698118;28;1226;-69
2022/12/10 01:18:51;;;;;;;44.10;25.17;;;;;;;-2.75;100.00;99974.63;696303;28;4454;-69
2022/12/10 01:19:12;;;;;;;41.80;23.23;;;;;;;-2.82;100.00;99971.81;700161;28;1391;-68
2022/12/10 01:19:34;;;;;;;43.97;23.98;;;;;;;-2.82;100.00;99972.66;696863;28;2009;-68
2022/12/10 01:19:55;;;;;;;44.47;24.15;;;;;;;-2.81;100.00;99971.84;696012;28;1397;-69
2022/12/10 01:20:16;;;;;;;44.60;24.47;;;;;;;-2.77;100.00;99966.03;694779;28;1315;-68
2022/12/10 01:20:36;;;;;;;44.65;25.75;;;;;;;-2.78;100.00;99974.53;692375;28;1348;-66
2022/12/10 01:21:06;;;;;;;47.28;26.55;;;;;;;-2.76;100.00;99978.00;694283;28;1301;-68
2022/12/10 01:21:28;;;;;;;40.13;22.55;;;;;;;-2.76;100.00;99978.00;697289;28;1278;-66
2022/12/10 01:21:53;;;;;;;42.80;23.52;;;;;;;-2.76;100.00;99977.13;697001;28;5359;-68
2022/12/10 01:22:14;;;;;;;41.03;22.83;;;;;;;-2.77;100.00;99976.28;700995;28;1325;-67
2022/12/10 01:22:34;;;;;;;42.03;23.20;;;;;;;-2.77;100.00;99978.84;700863;28;1170;-68
2022/12/10 01:22:55;;;;;;;45.03;25.08;;;;;;;-2.77;100.00;99981.41;697550;28;1047;-68
2022/12/10 01:23:15;;;;;;;50.03;30.03;;;;;;;-2.76;100.00;99978.00;697666;28;1307;-69
2022/12/10 01:23:37;;;;;;;52.38;32.28;;;;;;;-2.74;100.00;99978.94;694044;28;1051;-68
2022/12/10 01:23:58;;;;;;;47.70;27.55;;;;;;;-2.73;100.00;99977.25;691515;28;1532;-68
2022/12/10 01:24:21;;;;;;;45.70;27.38;;;;;;;-2.74;100.00;99978.94;693101;28;1513;-69
2022/12/10 01:24:41;;;;;;;45.75;26.02;;;;;;;-2.80;100.00;99978.69;693474;28;1295;-67
2022/12/10 01:25:02;;;;;;;47.73;24.83;;;;;;;-2.84;100.00;99975.97;693179;28;4456;-68
2022/12/10 01:25:22;;;;;;;47.65;25.27;;;;;;;-2.85;100.00;99982.78;692608;28;1918;-68
2022/12/10 01:25:43;;;;;;;44.95;25.23;;;;;;;-2.84;100.00;99975.97;694047;28;1116;-68
2022/12/10 01:26:06;;;;;;;47.50;26.83;;;;;;;-2.80;100.00;99982.94;697667;28;1337;-68
2022/12/10 01:26:30;;;;;;;51.65;28.08;;;;;;;-2.77;100.00;99981.41;693750;28;1088;-68
2022/12/10 01:26:51;;;;;;;48.90;27.02;;;;;;;-2.79;100.00;99977.88;694099;28;1140;-67
2022/12/10 01:27:11;;;;;;;48.42;27.58;;;;;;;-2.79;100.00;99980.44;693082;28;1156;-69
2022/12/10 01:27:32;;;;;;;45.23;26.00;;;;;;;-2.82;100.00;99992.25;692670;28;1284;-69
2022/12/10 01:27:52;;;;;;;51.75;31.02;;;;;;;-2.86;100.00;99978.47;689710;28;4471;-66
2022/12/10 01:28:13;;;;;;;58.77;36.10;;;;;;;-2.87;100.00;99978.41;692830;28;1203;-67
2022/12/10 01:28:35;;;;;;;55.53;31.83;;;;;;;-2.87;100.00;99986.09;696619;28;1653;-68
2022/12/10 01:28:56;;;;;;;50.00;28.77;;;;;;;-2.83;100.00;99985.41;693202;28;1154;-68
2022/12/10 01:29:17;;;;;;;50.65;31.17;;;;;;;-2.81;100.00;99986.31;692760;28;1400;-68
2022/12/10 01:29:38;;;;;;;50.40;29.75;;;;;;;-2.78;100.00;99983.91;694532;28;1250;-69
2022/12/10 01:29:58;;;;;;;49.30;26.48;;;;;;;-2.78;100.00;99984.75;692231;28;1331;-65
2022/12/10 01:30:18;;;;;;;46.17;25.47;;;;;;;-2.79;100.00;99984.69;689638;28;1152;-69
2022/12/10 01:30:39;;;;;;;45.50;26.65;;;;;;;-2.83;100.00;99986.25;687593;28;1310;-68
2022/12/10 01:31:21;;;;;;;48.80;26.83;;;;;;;-2.80;100.00;99988.94;686700;28;4484;-68
2022/12/10 01:31:41;;;;;;;45.85;25.20;;;;;;;-2.80;100.00;99983.81;693024;28;2857;-68
2022/12/10 01:32:02;;;;;;;46.63;25.92;;;;;;;-2.78;100.00;99987.31;693276;28;1261;-67
2022/12/10 01:32:23;;;;;;;48.42;26.55;;;;;;;-2.74;100.00;99988.31;694846;28;1313;-68
2022/12/10 01:32:43;;;;;;;49.67;27.23;;;;;;;-2.76;100.00;99983.13;694853;28;1416;-67
2022/12/10 01:33:04;;;;;;;52.60;30.00;;;;;;;-2.78;100.00;99986.44;695556;28;1436;-68
2022/12/10 01:33:24;;;;;;;53.78;32.08;;;;;;;-2.79;100.00;99983.00;695905;28;1449;-66
2022/12/10 01:33:45;;;;;;;50.30;29.03;;;;;;;-2.72;100.00;99991.78;692900;28;4294;-68
2022/12/10 01:34:09;;;;;;;44.75;26.40;;;;;;;-2.68;100.00;99988.53;695747;28;1471;-68
2022/12/10 01:34:29;;;;;;;45.22;25.67;;;;;;;-2.67;100.00;99989.38;696070;28;1131;-68
2022/12/10 01:34:50;;;;;;;43.75;24.45;;;;;;;-2.71;100.00;99987.53;696340;28;1142;-66
2022/12/10 01:35:11;;;;;;;50.38;25.08;;;;;;;-2.74;100.00;99991.72;696709;28;1130;-66
2022/12/10 01:35:31;;;;;;;47.67;24.23;;;;;;;-2.68;100.00;99987.69;695571;28;1347;-67
2022/12/10 01:35:51;;;;;;;44.27;24.93;;;;;;;-2.63;100.00;99983.56;693252;28;1281;-68
2022/12/10 01:36:15;;;;;;;45.33;24.88;;;;;;;-2.62;100.00;99986.19;689895;28;1234;-68
2022/12/10 01:36:39;;;;;;;42.97;23.42;;;;;;;-2.61;100.00;99987.09;691756;28;1420;-67
2022/12/10 01:37:00;;;;;;;43.05;24.90;;;;;;;-2.61;100.00;99987.09;690614;28;4431;-68
2022/12/10 01:37:20;;;;;;;44.40;24.73;;;;;;;-2.59;100.00;99985.44;690686;28;1222;-65
2022/12/10 01:37:41;;;;;;;45.60;25.43;;;;;;;-2.56;100.00;99983.03;692214;28;1286;-68
2022/12/10 01:38:01;;;;;;;42.60;23.98;;;;;;;-2.58;100.00;99988.06;693847;28;1393;-68
2022/12/10 01:38:22;;;;;;;42.90;23.60;;;;;;;-2.59;100.00;99980.31;692031;28;1250;-68
2022/12/10 01:38:45;;;;;;;44.05;22.88;;;;;;;-2.61;100.00;99987.94;691731;28;1018;-67
2022/12/10 01:39:08;;;;;;;41.92;22.98;;;;;;;-2.62;100.00;99988.75;692949;28;1267;-68
2022/12/10 01:39:28;;;;;;;44.13;23.50;;;;;;;-2.61;100.00;99997.31;693371;28;1170;-65